createdAt,value
2023-05-04T00:00:28.447Z,130.37
2023-05-04T00:01:28.440Z,129.80
2023-05-04T00:02:28.549Z,130.79
2023-05-04T00:03:28.594Z,131.41
2023-05-04T00:04:28.448Z,129.45
2023-05-04T00:05:28.414Z,130.42
2023-05-04T00:06:28.450Z,128.37
2023-05-04T00:07:28.456Z,129.95
2023-05-04T00:08:28.402Z,129.76
2023-05-04T00:09:28.403Z,132.51
2023-05-04T00:10:28.369Z,129.43
2023-05-04T00:11:28.367Z,132.83
2023-05-04T00:12:28.491Z,131.72
2023-05-04T00:13:28.356Z,130.82
2023-05-04T00:14:28.387Z,132.27
2023-05-04T00:15:28.338Z,132.26
2023-05-04T00:16:28.391Z,130.84
2023-05-04T00:17:28.355Z,133.27
2023-05-04T00:18:28.337Z,129.84
2023-05-04T00:19:28.337Z,130.78
2023-05-04T00:20:28.309Z,133.43
2023-05-04T00:21:28.329Z,132.69
2023-05-04T00:22:28.314Z,128.82
2023-05-04T00:23:28.278Z,128.52
2023-05-04T00:24:28.286Z,130.10
2023-05-04T00:25:28.284Z,130.96
2023-05-04T00:26:28.281Z,131.11
2023-05-04T00:27:28.246Z,129.36
2023-05-04T00:28:28.252Z,130.48
2023-05-04T00:29:28.287Z,128.56
2023-05-04T00:30:28.277Z,127.72
2023-05-04T00:31:28.245Z,131.30
2023-05-04T00:32:28.287Z,132.12
2023-05-04T00:33:28.257Z,129.28
2023-05-04T00:34:28.224Z,131.10
2023-05-04T00:35:28.260Z,128.19
2023-05-04T00:36:28.213Z,131.53
2023-05-04T00:37:28.224Z,131.07
2023-05-04T00:38:28.195Z,133.54
2023-05-04T00:39:28.180Z,129.65
2023-05-04T00:40:28.185Z,131.20
2023-05-04T00:41:28.163Z,129.41
2023-05-04T00:42:28.253Z,129.12
2023-05-04T00:43:28.152Z,131.56
2023-05-04T00:44:28.135Z,130.05
2023-05-04T00:45:28.188Z,128.36
2023-05-04T00:46:28.178Z,131.19
2023-05-04T00:47:28.226Z,128.67
2023-05-04T00:48:28.144Z,130.04
2023-05-04T00:49:28.130Z,130.38
2023-05-04T00:50:28.116Z,128.99
2023-05-04T00:51:28.103Z,131.82
2023-05-04T00:52:28.116Z,134.20
2023-05-04T00:53:28.076Z,130.49
2023-05-04T00:54:28.068Z,132.57
2023-05-04T00:55:28.076Z,133.59
2023-05-04T00:56:28.085Z,130.42
2023-05-04T00:57:28.121Z,129.94
2023-05-04T00:58:28.116Z,132.77
2023-05-04T00:59:28.086Z,132.72
2023-05-04T01:00:28.081Z,127.68
2023-05-04T01:01:28.139Z,129.77
2023-05-04T01:02:28.089Z,129.37
2023-05-04T01:03:28.194Z,131.76
2023-05-04T01:04:28.053Z,128.02
2023-05-04T01:05:28.032Z,131.27
2023-05-04T01:06:28.338Z,132.51
2023-05-04T01:07:28.061Z,132.05
2023-05-04T01:08:28.070Z,131.37
2023-05-04T01:09:28.064Z,130.05
2023-05-04T01:10:28.013Z,131.89
2023-05-04T01:11:28.120Z,129.29
2023-05-04T01:12:28.066Z,127.12
2023-05-04T01:13:28.012Z,132.58
2023-05-04T01:14:28.007Z,129.93
2023-05-04T01:15:27.999Z,129.01
2023-05-04T01:16:28.041Z,127.45
2023-05-04T01:17:28.114Z,131.61
2023-05-04T01:18:28.011Z,130.64
2023-05-04T01:19:27.983Z,132.14
2023-05-04T01:20:27.990Z,132.10
2023-05-04T01:21:28.020Z,128.83
2023-05-04T01:22:28.019Z,129.24
2023-05-04T01:23:28.018Z,127.17
2023-05-04T01:24:28.027Z,131.35
2023-05-04T01:25:28.032Z,132.31
2023-05-04T01:26:28.005Z,130.77
2023-05-04T01:27:28.025Z,130.04
2023-05-04T01:28:28.064Z,129.25
2023-05-04T01:29:28.065Z,131.14
2023-05-04T01:30:28.042Z,130.31
2023-05-04T01:31:28.078Z,129.18
2023-05-04T01:32:28.014Z,132.54
2023-05-04T01:33:28.008Z,128.72
2023-05-04T01:34:28.007Z,131.27
2023-05-04T01:35:28.005Z,131.68
2023-05-04T01:36:27.984Z,128.81
2023-05-04T01:37:27.995Z,128.08
2023-05-04T01:38:28.018Z,132.52
2023-05-04T01:39:27.982Z,129.43
2023-05-04T01:40:28.039Z,131.62
2023-05-04T01:41:28.020Z,131.29
2023-05-04T01:42:28.014Z,129.31
2023-05-04T01:43:27.978Z,128.69
2023-05-04T01:44:27.990Z,129.62
2023-05-04T01:45:27.972Z,131.55
2023-05-04T01:46:28.044Z,130.80
2023-05-04T01:47:27.992Z,129.90
2023-05-04T01:48:28.475Z,132.17
2023-05-04T01:49:27.986Z,133.66
2023-05-04T01:50:27.974Z,133.33
2023-05-04T01:51:27.970Z,126.62
2023-05-04T01:52:27.952Z,129.43
2023-05-04T01:53:27.953Z,130.65
2023-05-04T01:54:27.958Z,131.63
2023-05-04T01:55:27.980Z,128.21
2023-05-04T01:56:27.977Z,129.55
2023-05-04T01:57:27.977Z,129.10
2023-05-04T01:58:28.037Z,128.99
2023-05-04T01:59:27.969Z,125.64
2023-05-04T02:00:27.974Z,128.82
2023-05-04T02:01:28.048Z,130.66
2023-05-04T02:02:28.043Z,129.41
2023-05-04T02:03:28.023Z,130.69
2023-05-04T02:04:27.955Z,127.18
2023-05-04T02:05:28.003Z,129.51
2023-05-04T02:06:27.947Z,131.87
2023-05-04T02:07:27.980Z,131.65
2023-05-04T02:08:27.945Z,131.08
2023-05-04T02:09:27.950Z,129.67
2023-05-04T02:10:27.959Z,127.26
2023-05-04T02:11:27.937Z,129.24
2023-05-04T02:12:27.978Z,131.26
2023-05-04T02:13:27.985Z,130.88
2023-05-04T02:14:27.988Z,127.54
2023-05-04T02:15:28.023Z,130.72
2023-05-04T02:16:28.014Z,130.77
2023-05-04T02:17:28.025Z,132.58
2023-05-04T02:18:28.002Z,133.37
2023-05-04T02:19:27.996Z,129.14
2023-05-04T02:20:28.002Z,129.17
2023-05-04T02:21:28.020Z,129.17
2023-05-04T02:22:28.043Z,130.86
2023-05-04T02:23:28.021Z,131.33
2023-05-04T02:24:28.073Z,131.57
2023-05-04T02:25:28.046Z,130.61
2023-05-04T02:26:28.064Z,130.73
2023-05-04T02:27:28.096Z,130.04
2023-05-04T02:28:28.079Z,129.44
2023-05-04T02:29:28.087Z,129.85
2023-05-04T02:30:28.084Z,126.74
2023-05-04T02:31:28.158Z,126.54
2023-05-04T02:32:28.145Z,130.73
2023-05-04T02:33:28.142Z,132.51
2023-05-04T02:34:28.164Z,130.17
2023-05-04T02:35:28.136Z,129.91
2023-05-04T02:36:28.156Z,127.13
2023-05-04T02:37:28.172Z,127.94
2023-05-04T02:38:28.192Z,131.56
2023-05-04T02:39:28.197Z,131.49
2023-05-04T02:40:28.212Z,128.52
2023-05-04T02:41:28.207Z,131.02
2023-05-04T02:42:28.258Z,130.02
2023-05-04T02:43:28.246Z,132.46
2023-05-04T02:44:28.278Z,128.27
2023-05-04T02:45:28.366Z,131.88
2023-05-04T02:46:28.287Z,129.29
2023-05-04T02:47:28.390Z,132.66
2023-05-04T02:48:28.335Z,129.04
2023-05-04T02:49:28.343Z,130.05
2023-05-04T02:50:28.358Z,130.31
2023-05-04T02:51:28.386Z,133.29
2023-05-04T02:52:28.381Z,126.88
2023-05-04T02:53:28.397Z,130.96
2023-05-04T02:54:28.394Z,129.84
2023-05-04T02:55:28.469Z,128.35
2023-05-04T02:56:28.435Z,130.34
2023-05-04T02:57:28.458Z,129.66
2023-05-04T02:58:28.472Z,128.18
2023-05-04T02:59:28.498Z,129.53
2023-05-04T03:00:28.482Z,128.33
2023-05-04T03:01:28.543Z,131.10
2023-05-04T03:02:28.529Z,130.00
2023-05-04T03:03:28.551Z,129.88
2023-05-04T03:04:28.629Z,127.88
2023-05-04T03:05:28.635Z,128.42
2023-05-04T03:06:28.579Z,129.72
2023-05-04T03:07:28.630Z,130.39
2023-05-04T03:08:28.620Z,126.97
2023-05-04T03:09:28.632Z,126.25
2023-05-04T03:10:28.692Z,128.74
2023-05-04T03:11:28.659Z,126.88
2023-05-04T03:12:28.720Z,129.37
2023-05-04T03:13:28.702Z,127.34
2023-05-04T03:14:28.729Z,129.15
2023-05-04T03:15:28.735Z,125.62
2023-05-04T03:16:28.758Z,128.79
2023-05-04T03:17:28.776Z,130.61
2023-05-04T03:19:48.154Z,25.00
2023-05-04T03:20:47.955Z,25.00
2023-05-04T03:21:47.990Z,25.00
2023-05-04T03:22:47.977Z,25.00
2023-05-04T03:23:47.968Z,25.00
2023-05-04T03:24:47.932Z,25.89
2023-05-04T03:25:47.913Z,26.59
2023-05-04T03:26:47.903Z,29.30
2023-05-04T03:27:48.179Z,27.44
2023-05-04T03:28:47.911Z,25.00
2023-05-04T03:29:47.929Z,26.99
2023-05-04T03:30:47.894Z,30.79
2023-05-04T03:31:47.980Z,30.96
2023-05-04T03:32:48.223Z,30.56
2023-05-04T03:33:47.906Z,29.77
2023-05-04T03:34:47.874Z,31.05
2023-05-04T03:35:47.873Z,25.00
2023-05-04T03:36:47.843Z,28.48
2023-05-04T03:37:47.870Z,28.76
2023-05-04T03:38:47.847Z,26.88
2023-05-04T03:39:47.867Z,27.70
2023-05-04T03:40:47.812Z,31.76
2023-05-04T03:41:47.809Z,29.31
2023-05-04T03:42:47.821Z,29.27
2023-05-04T03:43:47.825Z,30.47
2023-05-04T03:44:47.799Z,31.24
2023-05-04T03:45:47.771Z,29.10
2023-05-04T03:46:47.785Z,32.81
2023-05-04T03:47:47.833Z,31.71
2023-05-04T03:48:47.758Z,31.30
2023-05-04T03:49:47.793Z,30.12
2023-05-04T03:50:47.735Z,31.31
2023-05-04T03:51:47.730Z,30.80
2023-05-04T03:52:47.744Z,30.49
2023-05-04T03:53:47.727Z,26.80
2023-05-04T03:54:47.739Z,30.23
2023-05-04T03:55:47.695Z,26.54
2023-05-04T03:56:47.729Z,31.18
2023-05-04T03:57:47.775Z,30.33
2023-05-04T03:58:47.700Z,29.25
2023-05-04T03:59:47.665Z,28.10
2023-05-04T04:00:47.695Z,34.00
2023-05-04T04:01:47.665Z,27.47
2023-05-04T04:02:47.857Z,30.95
2023-05-04T04:03:47.774Z,27.26
2023-05-04T04:04:47.716Z,29.67
2023-05-04T04:05:47.620Z,28.16
2023-05-04T04:06:47.626Z,29.40
2023-05-04T04:07:47.620Z,29.46
2023-05-04T04:08:47.633Z,31.06
2023-05-04T04:09:47.623Z,26.34
2023-05-04T04:10:47.614Z,30.98
2023-05-04T04:11:47.610Z,29.10
2023-05-04T04:12:47.681Z,28.66
2023-05-04T04:13:47.581Z,30.15
2023-05-04T04:14:47.568Z,28.97
2023-05-04T04:15:47.572Z,29.47
2023-05-04T04:16:47.608Z,31.57
2023-05-04T04:17:47.587Z,28.01
2023-05-04T04:18:47.551Z,32.12
2023-05-04T04:19:47.569Z,29.28
2023-05-04T04:20:47.547Z,29.91
2023-05-04T04:21:47.548Z,32.59
2023-05-04T04:22:47.528Z,27.25
2023-05-04T04:23:47.561Z,29.91
2023-05-04T04:24:47.506Z,29.04
2023-05-04T04:25:47.490Z,29.59
2023-05-04T04:26:47.512Z,29.83
2023-05-04T04:27:47.534Z,28.02
2023-05-04T04:28:47.492Z,30.59
2023-05-04T04:29:47.453Z,28.19
2023-05-04T04:30:47.465Z,32.94
2023-05-04T04:31:47.478Z,30.40
2023-05-04T04:32:47.484Z,27.79
2023-05-04T04:33:47.475Z,28.93
2023-05-04T04:34:47.444Z,27.00
2023-05-04T04:35:47.422Z,29.44
2023-05-04T04:36:47.430Z,29.74
2023-05-04T04:37:47.412Z,30.61
2023-05-04T04:38:47.417Z,29.03
2023-05-04T04:39:47.417Z,29.33
2023-05-04T04:40:47.410Z,29.98
2023-05-04T04:41:47.375Z,25.43
2023-05-04T04:42:47.397Z,30.57
2023-05-04T04:43:47.414Z,33.58
2023-05-04T04:44:47.436Z,25.09
2023-05-04T04:45:47.452Z,31.26
2023-05-04T04:46:47.534Z,28.39
2023-05-04T04:47:47.539Z,29.47
2023-05-04T04:48:47.489Z,29.65
2023-05-04T04:49:47.491Z,27.22
2023-05-04T04:50:47.536Z,25.80
2023-05-04T04:51:47.554Z,31.10
2023-05-04T04:52:47.591Z,28.99
2023-05-04T04:53:47.593Z,27.87
2023-05-04T04:54:47.618Z,29.65
2023-05-04T04:55:47.584Z,29.74
2023-05-04T04:56:47.611Z,26.02
2023-05-04T04:57:47.630Z,27.14
2023-05-04T04:58:47.636Z,31.47
2023-05-04T04:59:47.659Z,31.09
2023-05-04T05:00:47.735Z,27.43
2023-05-04T05:01:47.713Z,25.27
2023-05-04T05:02:47.742Z,29.68
2023-05-04T05:03:47.694Z,28.04
2023-05-04T05:04:47.734Z,28.92
2023-05-04T05:05:47.670Z,30.34
2023-05-04T05:06:47.677Z,27.45
2023-05-04T05:07:47.737Z,26.57
2023-05-04T05:08:47.739Z,27.89
2023-05-04T05:09:47.695Z,30.77
2023-05-04T05:10:47.651Z,25.88
2023-05-04T05:11:47.697Z,30.65
2023-05-04T05:12:47.723Z,26.51
2023-05-04T05:13:47.773Z,25.00
2023-05-04T05:14:47.709Z,29.47
2023-05-04T05:15:47.768Z,30.73
2023-05-04T05:16:47.748Z,29.39
2023-05-04T05:17:47.886Z,28.82
2023-05-04T05:18:47.828Z,29.66
2023-05-04T05:19:47.767Z,28.42
2023-05-04T05:20:47.791Z,27.94
2023-05-04T05:21:47.810Z,27.57
2023-05-04T05:22:47.835Z,28.42
2023-05-04T05:23:47.861Z,29.83
2023-05-04T05:24:47.969Z,27.76
2023-05-04T05:25:48.026Z,30.82
2023-05-04T05:26:47.982Z,27.55
2023-05-04T05:27:47.873Z,31.73
2023-05-04T05:28:47.884Z,28.96
2023-05-04T05:29:47.858Z,31.81
2023-05-04T05:30:47.988Z,28.70
2023-05-04T05:31:47.893Z,27.90
2023-05-04T05:32:49.423Z,33.69
2023-05-04T05:33:47.957Z,29.97
2023-05-04T05:34:48.814Z,31.57
2023-05-04T05:35:48.008Z,28.19
2023-05-04T05:36:47.931Z,30.27
2023-05-04T05:37:48.313Z,34.66
2023-05-04T05:38:50.290Z,19.73
2023-05-04T05:39:47.999Z,25.00
2023-05-04T05:40:48.047Z,25.20
2023-05-04T05:41:48.076Z,25.00
2023-05-04T05:42:48.164Z,31.94
2023-05-04T05:43:48.117Z,62.49
2023-05-04T05:44:48.302Z,69.40
2023-05-04T05:45:48.188Z,72.39
2023-05-04T05:46:48.205Z,81.41
2023-05-04T05:47:48.376Z,90.17
2023-05-04T05:48:48.212Z,94.21
2023-05-04T05:49:48.290Z,43.82
2023-05-04T05:50:48.356Z,77.52
2023-05-04T05:51:48.359Z,86.79
2023-05-04T05:52:48.397Z,74.26
2023-05-04T05:53:48.474Z,65.49
2023-05-04T05:54:48.498Z,53.02
2023-05-04T05:55:48.595Z,64.41
2023-05-04T05:56:48.612Z,68.82
2023-05-04T05:57:48.768Z,45.18
2023-05-04T05:58:48.663Z,45.64
2023-05-04T05:59:48.730Z,45.16
2023-05-04T06:00:48.790Z,47.67
2023-05-04T06:01:48.858Z,39.32
2023-05-04T06:02:49.005Z,50.39
2023-05-04T06:03:49.032Z,40.43
2023-05-04T06:04:49.093Z,29.59
2023-05-04T06:05:49.031Z,25.00
2023-05-04T06:06:49.103Z,28.30
2023-05-04T06:07:49.154Z,32.55
2023-05-04T06:08:49.036Z,70.04
2023-05-04T06:09:49.071Z,80.49
2023-05-04T06:10:49.074Z,86.17
2023-05-04T06:11:49.108Z,89.41
2023-05-04T06:12:49.237Z,92.41
2023-05-04T06:13:49.319Z,99.83
2023-05-04T06:14:49.358Z,100.23
2023-05-04T06:15:49.382Z,114.41
2023-05-04T06:16:49.501Z,117.65
2023-05-04T06:17:49.604Z,126.48
2023-05-04T06:18:49.539Z,129.06
2023-05-04T06:19:51.021Z,137.70
2023-05-04T06:20:49.600Z,143.60
2023-05-04T06:21:49.743Z,153.73
2023-05-04T06:22:49.755Z,159.53
2023-05-04T06:23:49.703Z,168.98
2023-05-04T06:24:49.745Z,176.49
2023-05-04T06:25:49.784Z,181.19
2023-05-04T06:26:49.835Z,186.72
2023-05-04T06:27:49.849Z,191.68
2023-05-04T06:28:49.866Z,200.88
2023-05-04T06:29:49.900Z,206.51
2023-05-04T06:30:49.962Z,207.61
2023-05-04T06:31:50.021Z,116.62
2023-05-04T06:32:49.993Z,119.03
2023-05-04T06:33:50.022Z,83.74
2023-05-04T06:34:50.063Z,79.15
2023-05-04T06:35:50.720Z,83.58
2023-05-04T06:36:52.822Z,61.63
2023-05-04T06:38:50.216Z,66.14
2023-05-04T06:39:50.117Z,47.81
2023-05-04T06:40:50.739Z,37.42
2023-05-04T06:41:50.109Z,24.76
2023-05-04T06:42:50.249Z,22.57
2023-05-04T06:43:50.147Z,25.00
2023-05-04T06:44:50.158Z,25.25
2023-05-04T06:45:50.113Z,29.46
2023-05-04T06:46:50.090Z,27.71
2023-05-04T06:47:50.186Z,27.79
2023-05-04T06:48:50.070Z,24.05
2023-05-04T06:49:50.049Z,25.49
2023-05-04T06:50:50.066Z,29.26
2023-05-04T06:51:50.098Z,26.74
2023-05-04T06:52:50.031Z,27.85
2023-05-04T06:53:50.024Z,25.52
2023-05-04T06:54:50.124Z,32.26
2023-05-04T06:55:50.016Z,30.81
2023-05-04T06:56:49.985Z,25.27
2023-05-04T06:57:49.995Z,26.61
2023-05-04T06:58:50.004Z,32.33
2023-05-04T06:59:49.994Z,26.10
2023-05-04T07:00:50.011Z,24.46
2023-05-04T07:01:49.971Z,27.38
2023-05-04T07:02:50.038Z,29.04
2023-05-04T07:03:50.075Z,27.37
2023-05-04T07:04:49.930Z,26.28
2023-05-04T07:05:50.014Z,34.95
2023-05-04T07:06:50.011Z,36.61
2023-05-04T07:07:51.295Z,39.79
2023-05-04T07:08:49.948Z,33.59
2023-05-04T07:09:49.932Z,31.93
2023-05-04T07:10:49.883Z,35.46
2023-05-04T07:11:49.893Z,34.29
2023-05-04T07:12:49.982Z,29.68
2023-05-04T07:13:49.867Z,25.00
2023-05-04T07:14:49.852Z,25.55
2023-05-04T07:15:49.861Z,30.01
2023-05-04T07:16:49.885Z,34.96
2023-05-04T07:17:49.994Z,25.00
2023-05-04T07:18:49.858Z,31.71
2023-05-04T07:19:49.820Z,26.05
2023-05-04T07:20:49.829Z,27.33
2023-05-04T07:21:49.830Z,32.87
2023-05-04T07:22:49.834Z,30.10
2023-05-04T07:23:49.826Z,28.30
2023-05-04T07:24:49.913Z,26.18
2023-05-04T07:25:50.345Z,27.88
2023-05-04T07:26:49.883Z,31.49
2023-05-04T07:27:49.816Z,28.16
2023-05-04T07:28:49.825Z,29.75
2023-05-04T07:29:49.830Z,31.64
2023-05-04T07:30:49.892Z,31.32
2023-05-04T07:31:49.781Z,24.43
2023-05-04T07:32:49.847Z,72.13
2023-05-04T07:33:49.743Z,86.38
2023-05-04T07:34:49.837Z,111.62
2023-05-04T07:35:49.777Z,138.92
2023-05-04T07:36:49.770Z,154.39
2023-05-04T07:37:49.726Z,165.88
2023-05-04T07:38:49.714Z,153.34
2023-05-04T07:39:49.702Z,143.25
2023-05-04T07:40:49.695Z,133.10
2023-05-04T07:41:49.753Z,106.52
2023-05-04T07:42:49.743Z,96.85
2023-05-04T07:43:49.701Z,96.36
2023-05-04T07:44:49.921Z,92.40
2023-05-04T07:45:49.739Z,87.14
2023-05-04T07:46:49.748Z,85.02
2023-05-04T07:47:50.626Z,74.80
2023-05-04T07:48:49.664Z,76.60
2023-05-04T07:49:49.625Z,73.90
2023-05-04T07:50:49.608Z,74.93
2023-05-04T07:51:49.598Z,64.60
2023-05-04T07:52:49.662Z,68.82
2023-05-04T07:53:49.573Z,60.81
2023-05-04T07:54:49.587Z,65.82
2023-05-04T07:55:49.581Z,68.11
2023-05-04T07:56:49.661Z,58.89
2023-05-04T07:57:49.600Z,55.75
2023-05-04T07:58:49.587Z,39.95
2023-05-04T07:59:49.614Z,30.88
2023-05-04T08:00:49.587Z,34.37
2023-05-04T08:01:49.589Z,37.42
2023-05-04T08:02:49.738Z,35.93
2023-05-04T08:03:49.602Z,43.84
2023-05-04T08:04:49.605Z,47.07
2023-05-04T08:05:49.573Z,40.48
2023-05-04T08:06:49.676Z,44.48
2023-05-04T08:07:49.605Z,53.83
2023-05-04T08:08:52.005Z,48.25
2023-05-04T08:09:49.576Z,43.36
2023-05-04T08:10:49.576Z,42.01
2023-05-04T08:11:49.648Z,32.42
2023-05-04T08:12:49.626Z,25.00
2023-05-04T08:13:49.847Z,34.61
2023-05-04T08:14:49.554Z,26.18
2023-05-04T08:15:49.551Z,33.24
2023-05-04T08:16:49.533Z,40.80
2023-05-04T08:17:49.538Z,36.44
2023-05-04T08:18:49.549Z,37.13
2023-05-04T08:19:49.531Z,38.98
2023-05-04T08:20:49.524Z,29.66
2023-05-04T08:21:49.587Z,62.88
2023-05-04T08:22:49.759Z,92.46
2023-05-04T08:23:49.486Z,91.97
2023-05-04T08:24:49.479Z,99.95
2023-05-04T08:25:49.463Z,109.09
2023-05-04T08:26:59.783Z,120.06
2023-05-04T08:27:50.762Z,120.50
2023-05-04T08:28:49.767Z,122.11
2023-05-04T08:29:49.468Z,124.99
2023-05-04T08:30:49.440Z,130.06
2023-05-04T08:31:49.481Z,141.63
2023-05-04T08:32:49.462Z,144.64
2023-05-04T08:33:49.406Z,148.49
2023-05-04T08:34:49.388Z,150.67
2023-05-04T08:35:49.408Z,156.00
2023-05-04T08:36:49.427Z,163.55
2023-05-04T08:37:49.887Z,169.20
2023-05-04T08:38:49.809Z,168.33
2023-05-04T08:39:49.531Z,170.48
2023-05-04T08:40:50.549Z,171.40
2023-05-04T08:41:49.596Z,171.69
2023-05-04T08:42:49.633Z,171.30
2023-05-04T08:43:49.778Z,186.93
2023-05-04T08:44:49.755Z,189.57
2023-05-04T08:45:49.840Z,201.78
2023-05-04T08:46:49.860Z,201.75
2023-05-04T08:47:50.137Z,208.00
2023-05-04T08:48:50.020Z,214.53
2023-05-04T08:49:50.031Z,217.99
2023-05-04T08:50:50.103Z,225.74
2023-05-04T08:51:50.143Z,240.28
2023-05-04T08:52:50.202Z,296.25
2023-05-04T08:53:50.309Z,232.14
2023-05-04T08:54:50.317Z,216.64
2023-05-04T08:55:50.395Z,215.89
2023-05-04T08:56:50.454Z,218.27
2023-05-04T08:57:51.183Z,218.34
2023-05-04T08:58:50.564Z,219.01
2023-05-04T08:59:50.629Z,227.17
2023-05-04T09:00:50.729Z,228.59
2023-05-04T09:01:50.789Z,227.19
2023-05-04T09:02:50.838Z,233.92
2023-05-04T09:03:51.003Z,238.36
2023-05-04T09:04:50.870Z,238.89
2023-05-04T09:05:50.941Z,249.96
2023-05-04T09:06:50.969Z,245.34
2023-05-04T09:07:51.077Z,235.76
2023-05-04T09:08:51.103Z,237.49
2023-05-04T09:09:51.109Z,243.64
2023-05-04T09:10:51.144Z,249.87
2023-05-04T09:11:51.215Z,250.00
2023-05-04T09:12:51.252Z,248.99
2023-05-04T09:13:51.345Z,248.91
2023-05-04T09:14:51.370Z,248.74
2023-05-04T09:15:51.429Z,247.72
2023-05-04T09:16:51.391Z,249.66
2023-05-04T09:18:52.765Z,250.27
2023-05-04T09:19:51.399Z,251.02
2023-05-04T09:20:51.369Z,252.25
2023-05-04T09:21:51.388Z,257.07
2023-05-04T09:22:51.459Z,268.05
2023-05-04T09:23:51.679Z,251.69
2023-05-04T09:24:51.336Z,248.16
2023-05-04T09:25:51.341Z,250.00
2023-05-04T09:26:51.306Z,247.30
2023-05-04T09:27:51.338Z,245.29
2023-05-04T09:28:51.301Z,247.40
2023-05-04T09:29:54.354Z,249.67
2023-05-04T09:30:51.316Z,247.06
2023-05-04T09:31:51.304Z,244.74
2023-05-04T09:32:51.359Z,247.46
2023-05-04T09:33:53.380Z,250.00
2023-05-04T09:34:51.289Z,250.08
2023-05-04T09:35:51.296Z,247.00
2023-05-04T09:36:51.311Z,250.52
2023-05-04T09:37:51.319Z,250.92
2023-05-04T09:38:51.246Z,254.05
2023-05-04T09:39:51.287Z,249.26
2023-05-04T09:40:51.295Z,249.14
2023-05-04T09:41:51.304Z,249.55
2023-05-04T09:42:51.292Z,249.07
2023-05-04T09:43:51.285Z,249.55
2023-05-04T09:44:51.263Z,248.90
2023-05-04T09:45:51.401Z,248.46
2023-05-04T09:46:51.323Z,249.24
2023-05-04T09:47:51.389Z,248.86
2023-05-04T09:48:51.437Z,247.85
2023-05-04T09:49:51.310Z,247.12
2023-05-04T09:50:51.315Z,247.66
2023-05-04T09:51:51.314Z,248.29
2023-05-04T09:52:51.380Z,249.55
2023-05-04T09:53:51.375Z,248.24
2023-05-04T09:54:51.323Z,249.20
2023-05-04T09:55:51.350Z,248.16
2023-05-04T09:56:51.382Z,247.75
2023-05-04T09:57:51.391Z,248.36
2023-05-04T09:58:51.328Z,247.04
2023-05-04T09:59:51.321Z,247.80
2023-05-04T10:00:51.339Z,246.16
2023-05-04T10:01:51.349Z,248.42
2023-05-04T10:02:51.354Z,250.00
2023-05-04T10:03:51.333Z,247.48
2023-05-04T10:04:51.311Z,248.40
2023-05-04T10:05:51.436Z,249.60
2023-05-04T10:06:51.304Z,249.75
2023-05-04T10:07:51.297Z,240.94
2023-05-04T10:08:51.320Z,245.92
2023-05-04T10:09:51.418Z,248.02
2023-05-04T10:10:51.329Z,248.22
2023-05-04T10:11:51.335Z,248.01
2023-05-04T10:12:51.338Z,248.47
2023-05-04T10:13:51.308Z,248.22
2023-05-04T10:14:51.277Z,245.27
2023-05-04T10:15:51.296Z,244.36
2023-05-04T10:16:51.293Z,244.65
2023-05-04T10:17:51.310Z,242.21
2023-05-04T10:18:51.322Z,243.53
2023-05-04T10:19:51.320Z,243.26
2023-05-04T10:20:51.262Z,246.30
2023-05-04T10:21:51.271Z,249.93
2023-05-04T10:22:51.265Z,250.00
2023-05-04T10:23:51.242Z,249.95
2023-05-04T10:24:51.544Z,250.00
2023-05-04T10:25:51.246Z,249.68
2023-05-04T10:26:51.243Z,248.89
2023-05-04T10:27:51.238Z,248.47
2023-05-04T10:28:51.282Z,249.99
2023-05-04T10:29:51.255Z,250.00
2023-05-04T10:30:51.233Z,247.63
2023-05-04T10:31:51.346Z,247.25
2023-05-04T10:32:51.382Z,249.51
2023-05-04T10:33:51.231Z,249.57
2023-05-04T10:34:51.244Z,247.06
2023-05-04T10:35:51.248Z,249.11
2023-05-04T10:36:51.316Z,247.84
2023-05-04T10:37:51.220Z,249.12
2023-05-04T10:38:51.220Z,248.06
2023-05-04T10:39:51.329Z,247.09
2023-05-04T10:40:51.221Z,248.09
2023-05-04T10:41:51.226Z,248.39
2023-05-04T10:42:51.252Z,247.98
2023-05-04T10:43:51.259Z,248.24
2023-05-04T10:44:51.233Z,245.66
2023-05-04T10:45:51.417Z,246.05
2023-05-04T10:46:51.236Z,247.51
2023-05-04T10:47:51.284Z,245.30
2023-05-04T10:48:51.395Z,245.25
2023-05-04T10:49:51.279Z,244.87
2023-05-04T10:50:51.335Z,245.18
2023-05-04T10:51:51.344Z,246.08
2023-05-04T10:52:51.334Z,245.42
2023-05-04T10:53:51.430Z,245.42
2023-05-04T10:54:51.434Z,245.61
2023-05-04T10:55:52.361Z,245.13
2023-05-04T10:56:51.453Z,245.48
2023-05-04T10:57:51.486Z,244.45
2023-05-04T10:58:51.508Z,245.94
2023-05-04T10:59:51.536Z,245.38
2023-05-04T11:00:51.722Z,243.86
2023-05-04T11:01:51.562Z,244.51
2023-05-04T11:02:51.668Z,242.90
2023-05-04T11:03:51.687Z,242.46
2023-05-04T11:04:51.645Z,244.01
2023-05-04T11:05:51.606Z,242.18
2023-05-04T11:06:51.663Z,245.00
2023-05-04T11:07:51.798Z,243.98
2023-05-04T11:08:51.716Z,243.42
2023-05-04T11:09:51.674Z,242.83
2023-05-04T11:10:51.740Z,241.19
2023-05-04T11:11:51.752Z,243.24
2023-05-04T11:12:51.823Z,243.28
2023-05-04T11:13:51.791Z,245.08
2023-05-04T11:14:51.941Z,244.94
2023-05-04T11:15:51.905Z,247.98
2023-05-04T11:16:51.953Z,243.68
2023-05-04T11:17:52.161Z,243.44
2023-05-04T11:18:51.982Z,239.11
2023-05-04T11:19:52.050Z,239.19
2023-05-04T11:20:51.997Z,239.61
2023-05-04T11:21:52.008Z,241.58
2023-05-04T11:22:52.052Z,242.10
2023-05-04T11:23:52.088Z,242.00
2023-05-04T11:24:53.300Z,242.85
2023-05-04T11:25:52.077Z,244.66
2023-05-04T11:26:52.129Z,245.13
2023-05-04T11:27:52.119Z,244.34
2023-05-04T11:28:52.182Z,241.34
2023-05-04T11:29:52.183Z,242.76
2023-05-04T11:30:53.774Z,241.37
2023-05-04T11:31:52.237Z,243.25
2023-05-04T11:32:52.147Z,242.63
2023-05-04T11:33:52.197Z,241.89
2023-05-04T11:34:52.126Z,242.29
2023-05-04T11:35:52.259Z,241.20
2023-05-04T11:36:52.122Z,241.51
2023-05-04T11:37:52.089Z,240.37
2023-05-04T11:38:52.335Z,240.21
2023-05-04T11:39:52.121Z,241.65
2023-05-04T11:40:52.095Z,239.00
2023-05-04T11:41:52.119Z,240.93
2023-05-04T11:42:53.248Z,240.25
2023-05-04T11:43:52.344Z,240.98
2023-05-04T11:44:52.121Z,238.40
2023-05-04T11:45:52.055Z,238.47
2023-05-04T11:46:52.169Z,239.24
2023-05-04T11:47:52.079Z,239.08
2023-05-04T11:48:52.340Z,239.23
2023-05-04T11:49:52.019Z,236.75
2023-05-04T11:50:52.026Z,238.15
2023-05-04T11:51:52.028Z,238.55
2023-05-04T11:52:52.003Z,237.20
2023-05-04T11:53:52.325Z,237.21
2023-05-04T11:54:53.226Z,236.94
2023-05-04T11:55:52.072Z,236.19
2023-05-04T11:56:52.131Z,235.42
2023-05-04T11:57:52.096Z,235.49
2023-05-04T11:58:52.159Z,236.23
2023-05-04T11:59:52.138Z,236.02
2023-05-04T12:00:53.094Z,233.88
2023-05-04T12:01:52.211Z,234.61
2023-05-04T12:02:52.257Z,235.95
2023-05-04T12:03:54.093Z,235.09
2023-05-04T12:04:52.266Z,235.76
2023-05-04T12:05:52.425Z,234.84
2023-05-04T12:06:52.326Z,235.88
2023-05-04T12:07:52.431Z,234.33
2023-05-04T12:08:52.448Z,233.30
2023-05-04T12:09:52.889Z,235.67
2023-05-04T12:10:52.553Z,232.69
2023-05-04T12:11:52.584Z,233.76
2023-05-04T12:12:52.596Z,233.68
2023-05-04T12:13:52.598Z,232.53
2023-05-04T12:14:52.634Z,233.58
2023-05-04T12:15:52.662Z,233.46
2023-05-04T12:16:52.694Z,234.26
2023-05-04T12:17:52.752Z,231.82
2023-05-04T12:18:52.755Z,233.34
2023-05-04T12:19:52.841Z,232.58
2023-05-04T12:20:52.844Z,232.04
2023-05-04T12:21:52.904Z,233.41
2023-05-04T12:22:52.938Z,232.17
2023-05-04T12:23:52.985Z,232.11
2023-05-04T12:24:52.987Z,231.28
2023-05-04T12:25:58.240Z,232.22
2023-05-04T12:26:54.037Z,232.37
2023-05-04T12:27:53.019Z,232.41
2023-05-04T12:28:53.847Z,232.82
2023-05-04T12:29:52.989Z,231.78
2023-05-04T12:30:52.955Z,232.52
2023-05-04T12:31:52.998Z,231.18
2023-05-04T12:32:52.990Z,230.78
2023-05-04T12:33:52.927Z,230.70
2023-05-04T12:34:52.936Z,231.91
2023-05-04T12:35:52.960Z,230.81
2023-05-04T12:36:52.988Z,229.93
2023-05-04T12:37:52.941Z,230.94
2023-05-04T12:38:52.895Z,231.17
2023-05-04T12:39:52.961Z,230.09
2023-05-04T12:40:52.901Z,229.01